sensor_id;sensor_type;location;lat;lon;timestamp;temperature;humidity
24017;DHT22;12222;50.090;19.702;2022-08-19T00:01:35;19.80;99.90
24017;DHT22;12222;50.090;19.702;2022-08-19T00:06:59;19.80;99.90
24017;DHT22;12222;50.090;19.702;2022-08-19T00:12:21;19.70;99.90
24017;DHT22;12222;50.090;19.702;2022-08-19T00:17:44;19.60;99.90
24017;DHT22;12222;50.090;19.702;2022-08-19T00:23:07;19.70;99.90
24017;DHT22;12222;50.090;19.702;2022-08-19T00:28:29;19.60;99.90
24017;DHT22;12222;50.090;19.702;2022-08-19T00:33:52;19.60;99.90
24017;DHT22;12222;50.090;19.702;2022-08-19T00:39:16;19.40;99.90
24017;DHT22;12222;50.090;19.702;2022-08-19T00:44:38;19.30;99.90
24017;DHT22;12222;50.090;19.702;2022-08-19T00:50:00;19.20;99.90
24017;DHT22;12222;50.090;19.702;2022-08-19T00:55:25;19.00;99.90
24017;DHT22;12222;50.090;19.702;2022-08-19T01:00:50;19.00;99.90
24017;DHT22;12222;50.090;19.702;2022-08-19T01:06:12;18.90;99.90
24017;DHT22;12222;50.090;19.702;2022-08-19T01:11:42;18.80;99.90
24017;DHT22;12222;50.090;19.702;2022-08-19T01:17:07;18.70;99.90
24017;DHT22;12222;50.090;19.702;2022-08-19T01:22:45;18.80;99.90
24017;DHT22;12222;50.090;19.702;2022-08-19T01:28:08;19.00;99.90
24017;DHT22;12222;50.090;19.702;2022-08-19T01:33:32;19.00;99.90
24017;DHT22;12222;50.090;19.702;2022-08-19T01:38:54;18.70;99.90
24017;DHT22;12222;50.090;19.702;2022-08-19T01:44:17;18.70;99.90
24017;DHT22;12222;50.090;19.702;2022-08-19T01:49:42;18.60;99.90
24017;DHT22;12222;50.090;19.702;2022-08-19T01:55:07;18.50;99.90
24017;DHT22;12222;50.090;19.702;2022-08-19T02:00:31;18.40;99.90
24017;DHT22;12222;50.090;19.702;2022-08-19T02:05:56;18.50;99.90
24017;DHT22;12222;50.090;19.702;2022-08-19T02:11:25;18.60;99.90
24017;DHT22;12222;50.090;19.702;2022-08-19T02:16:48;18.60;99.90
24017;DHT22;12222;50.090;19.702;2022-08-19T02:22:10;18.50;99.90
24017;DHT22;12222;50.090;19.702;2022-08-19T02:27:32;18.20;99.90
24017;DHT22;12222;50.090;19.702;2022-08-19T02:32:55;18.20;99.90
24017;DHT22;12222;50.090;19.702;2022-08-19T02:38:18;18.30;99.90
24017;DHT22;12222;50.090;19.702;2022-08-19T02:43:49;18.30;99.90
24017;DHT22;12222;50.090;19.702;2022-08-19T02:49:31;18.30;99.90
24017;DHT22;12222;50.090;19.702;2022-08-19T02:54:55;18.20;99.90
24017;DHT22;12222;50.090;19.702;2022-08-19T03:00:19;18.10;99.90
24017;DHT22;12222;50.090;19.702;2022-08-19T03:05:42;18.00;99.90
24017;DHT22;12222;50.090;19.702;2022-08-19T03:11:20;17.80;99.90
24017;DHT22;12222;50.090;19.702;2022-08-19T03:16:46;17.80;99.90
24017;DHT22;12222;50.090;19.702;2022-08-19T03:22:09;17.80;99.90
24017;DHT22;12222;50.090;19.702;2022-08-19T03:27:32;17.70;99.90
24017;DHT22;12222;50.090;19.702;2022-08-19T03:32:56;17.70;99.90
24017;DHT22;12222;50.090;19.702;2022-08-19T03:38:20;17.80;99.90
24017;DHT22;12222;50.090;19.702;2022-08-19T03:43:43;17.80;99.90
24017;DHT22;12222;50.090;19.702;2022-08-19T03:49:08;17.80;99.90
24017;DHT22;12222;50.090;19.702;2022-08-19T03:54:30;17.80;99.90
24017;DHT22;12222;50.090;19.702;2022-08-19T03:59:52;17.70;99.90
24017;DHT22;12222;50.090;19.702;2022-08-19T04:05:14;17.60;99.90
24017;DHT22;12222;50.090;19.702;2022-08-19T04:10:37;17.70;99.90
24017;DHT22;12222;50.090;19.702;2022-08-19T04:16:00;17.80;99.90
24017;DHT22;12222;50.090;19.702;2022-08-19T04:21:24;17.90;99.90
24017;DHT22;12222;50.090;19.702;2022-08-19T04:26:47;18.00;99.90
24017;DHT22;12222;50.090;19.702;2022-08-19T04:32:09;18.00;99.90
24017;DHT22;12222;50.090;19.702;2022-08-19T04:37:32;18.20;99.90
24017;DHT22;12222;50.090;19.702;2022-08-19T04:42:56;18.20;99.90
24017;DHT22;12222;50.090;19.702;2022-08-19T04:48:18;18.40;99.90
24017;DHT22;12222;50.090;19.702;2022-08-19T04:53:48;18.80;99.90
24017;DHT22;12222;50.090;19.702;2022-08-19T04:59:11;19.30;99.90
24017;DHT22;12222;50.090;19.702;2022-08-19T05:04:33;20.20;99.90
24017;DHT22;12222;50.090;19.702;2022-08-19T05:09:57;21.30;99.90
24017;DHT22;12222;50.090;19.702;2022-08-19T05:15:20;22.00;99.90
24017;DHT22;12222;50.090;19.702;2022-08-19T05:20:42;22.30;99.90
24017;DHT22;12222;50.090;19.702;2022-08-19T05:26:24;21.80;99.90
24017;DHT22;12222;50.090;19.702;2022-08-19T05:31:48;21.90;99.90
24017;DHT22;12222;50.090;19.702;2022-08-19T05:37:13;22.20;99.90
24017;DHT22;12222;50.090;19.702;2022-08-19T05:42:35;22.00;99.90
24017;DHT22;12222;50.090;19.702;2022-08-19T05:47:58;21.90;99.90
24017;DHT22;12222;50.090;19.702;2022-08-19T05:53:20;22.00;99.90
24017;DHT22;12222;50.090;19.702;2022-08-19T05:58:43;22.40;99.90
24017;DHT22;12222;50.090;19.702;2022-08-19T06:04:07;22.70;99.90
24017;DHT22;12222;50.090;19.702;2022-08-19T06:09:29;22.80;99.90
24017;DHT22;12222;50.090;19.702;2022-08-19T06:14:51;23.10;99.90
24017;DHT22;12222;50.090;19.702;2022-08-19T06:20:22;23.30;99.90
24017;DHT22;12222;50.090;19.702;2022-08-19T06:26:04;23.60;99.90
24017;DHT22;12222;50.090;19.702;2022-08-19T11:09:40;34.40;73.60
24017;DHT22;12222;50.090;19.702;2022-08-19T11:15:03;34.10;73.20
24017;DHT22;12222;50.090;19.702;2022-08-19T11:20:26;34.30;72.80
24017;DHT22;12222;50.090;19.702;2022-08-19T11:25:50;33.80;74.50
24017;DHT22;12222;50.090;19.702;2022-08-19T11:31:15;33.50;69.90
24017;DHT22;12222;50.090;19.702;2022-08-19T11:36:40;33.40;69.50
24017;DHT22;12222;50.090;19.702;2022-08-19T11:42:04;33.40;70.90
24017;DHT22;12222;50.090;19.702;2022-08-19T11:47:47;33.30;68.60
24017;DHT22;12222;50.090;19.702;2022-08-19T11:53:09;33.30;65.50
24017;DHT22;12222;50.090;19.702;2022-08-19T11:58:32;33.20;65.40
24017;DHT22;12222;50.090;19.702;2022-08-19T12:03:55;33.50;67.00
24017;DHT22;12222;50.090;19.702;2022-08-19T12:09:18;34.10;67.00
24017;DHT22;12222;50.090;19.702;2022-08-19T12:14:40;34.30;66.20
24017;DHT22;12222;50.090;19.702;2022-08-19T12:20:03;34.10;65.40
24017;DHT22;12222;50.090;19.702;2022-08-19T12:25:26;33.60;66.80
24017;DHT22;12222;50.090;19.702;2022-08-19T12:30:49;33.60;65.70
24017;DHT22;12222;50.090;19.702;2022-08-19T12:36:15;34.30;66.20
24017;DHT22;12222;50.090;19.702;2022-08-19T12:41:37;34.50;66.00
24017;DHT22;12222;50.090;19.702;2022-08-19T12:47:13;34.40;64.10
24017;DHT22;12222;50.090;19.702;2022-08-19T12:52:43;34.10;67.20
24017;DHT22;12222;50.090;19.702;2022-08-19T12:58:05;33.50;65.40
24017;DHT22;12222;50.090;19.702;2022-08-19T13:03:27;34.20;66.20
24017;DHT22;12222;50.090;19.702;2022-08-19T13:08:51;34.10;68.30
24017;DHT22;12222;50.090;19.702;2022-08-19T13:14:20;33.30;65.60
24017;DHT22;12222;50.090;19.702;2022-08-19T13:19:42;33.10;67.70
24017;DHT22;12222;50.090;19.702;2022-08-19T13:25:06;33.10;67.70
24017;DHT22;12222;50.090;19.702;2022-08-19T13:30:28;33.10;67.70
24017;DHT22;12222;50.090;19.702;2022-08-19T13:36:09;33.30;69.70
24017;DHT22;12222;50.090;19.702;2022-08-19T13:41:31;32.90;68.60
24017;DHT22;12222;50.090;19.702;2022-08-19T13:46:53;32.40;69.50
24017;DHT22;12222;50.090;19.702;2022-08-19T13:52:16;32.70;70.00
24017;DHT22;12222;50.090;19.702;2022-08-19T13:57:38;32.70;70.30
24017;DHT22;12222;50.090;19.702;2022-08-19T14:03:01;32.40;70.00
24017;DHT22;12222;50.090;19.702;2022-08-19T14:08:30;32.20;68.80
24017;DHT22;12222;50.090;19.702;2022-08-19T14:13:54;32.00;69.10
24017;DHT22;12222;50.090;19.702;2022-08-19T14:19:16;31.90;69.60
24017;DHT22;12222;50.090;19.702;2022-08-19T14:24:38;32.10;69.90
24017;DHT22;12222;50.090;19.702;2022-08-19T14:30:10;31.90;68.10
24017;DHT22;12222;50.090;19.702;2022-08-19T14:35:33;31.90;69.70
24017;DHT22;12222;50.090;19.702;2022-08-19T14:46:41;31.70;68.90
24017;DHT22;12222;50.090;19.702;2022-08-19T14:52:10;31.70;68.50
24017;DHT22;12222;50.090;19.702;2022-08-19T14:57:32;31.60;69.80
24017;DHT22;12222;50.090;19.702;2022-08-19T15:02:54;31.50;71.60
24017;DHT22;12222;50.090;19.702;2022-08-19T15:08:17;31.60;71.50
24017;DHT22;12222;50.090;19.702;2022-08-19T15:13:40;31.50;70.30
24017;DHT22;12222;50.090;19.702;2022-08-19T15:19:02;31.50;70.30
24017;DHT22;12222;50.090;19.702;2022-08-19T15:24:24;31.50;71.70
24017;DHT22;12222;50.090;19.702;2022-08-19T15:29:47;31.60;71.50
24017;DHT22;12222;50.090;19.702;2022-08-19T15:35:16;31.40;72.50
24017;DHT22;12222;50.090;19.702;2022-08-19T15:40:41;31.40;72.00
24017;DHT22;12222;50.090;19.702;2022-08-19T15:46:03;31.40;72.90
24017;DHT22;12222;50.090;19.702;2022-08-19T15:51:27;31.30;74.80
24017;DHT22;12222;50.090;19.702;2022-08-19T15:56:51;31.00;73.20
24017;DHT22;12222;50.090;19.702;2022-08-19T16:02:32;31.10;73.60
24017;DHT22;12222;50.090;19.702;2022-08-19T16:08:14;30.80;72.80
24017;DHT22;12222;50.090;19.702;2022-08-19T16:13:36;30.50;73.40
24017;DHT22;12222;50.090;19.702;2022-08-19T16:19:03;30.30;74.80
24017;DHT22;12222;50.090;19.702;2022-08-19T16:24:31;30.00;76.40
24017;DHT22;12222;50.090;19.702;2022-08-19T16:29:54;29.70;81.70
24017;DHT22;12222;50.090;19.702;2022-08-19T16:35:16;29.50;83.10
24017;DHT22;12222;50.090;19.702;2022-08-19T16:40:39;29.40;93.70
24017;DHT22;12222;50.090;19.702;2022-08-19T16:46:07;29.20;97.70
24017;DHT22;12222;50.090;19.702;2022-08-19T16:51:30;28.90;96.70
24017;DHT22;12222;50.090;19.702;2022-08-19T16:56:54;28.70;98.00
24017;DHT22;12222;50.090;19.702;2022-08-19T17:02:18;28.50;97.90
24017;DHT22;12222;50.090;19.702;2022-08-19T17:07:42;28.40;99.90
24017;DHT22;12222;50.090;19.702;2022-08-19T17:13:05;28.20;99.90
24017;DHT22;12222;50.090;19.702;2022-08-19T17:18:27;27.80;99.90
24017;DHT22;12222;50.090;19.702;2022-08-19T17:23:53;27.80;99.90
24017;DHT22;12222;50.090;19.702;2022-08-19T17:29:16;27.40;99.90
24017;DHT22;12222;50.090;19.702;2022-08-19T17:34:38;27.40;99.90
24017;DHT22;12222;50.090;19.702;2022-08-19T17:40:06;27.20;99.90
24017;DHT22;12222;50.090;19.702;2022-08-19T17:45:29;27.10;99.90
24017;DHT22;12222;50.090;19.702;2022-08-19T17:50:52;27.10;99.90
24017;DHT22;12222;50.090;19.702;2022-08-19T17:56:15;27.10;99.90
24017;DHT22;12222;50.090;19.702;2022-08-19T18:01:38;26.90;99.90
24017;DHT22;12222;50.090;19.702;2022-08-19T18:07:15;27.00;99.90
24017;DHT22;12222;50.090;19.702;2022-08-19T18:12:37;26.80;99.90
24017;DHT22;12222;50.090;19.702;2022-08-19T18:18:00;26.80;99.90
24017;DHT22;12222;50.090;19.702;2022-08-19T18:23:23;26.70;99.90
24017;DHT22;12222;50.090;19.702;2022-08-19T18:29:06;26.60;99.90
24017;DHT22;12222;50.090;19.702;2022-08-19T18:34:30;26.60;99.90
24017;DHT22;12222;50.090;19.702;2022-08-19T18:39:52;26.80;99.90
24017;DHT22;12222;50.090;19.702;2022-08-19T18:45:33;26.70;99.90
24017;DHT22;12222;50.090;19.702;2022-08-19T18:51:17;26.40;99.90
24017;DHT22;12222;50.090;19.702;2022-08-19T18:56:39;26.10;99.90
24017;DHT22;12222;50.090;19.702;2022-08-19T19:02:09;25.50;99.90
24017;DHT22;12222;50.090;19.702;2022-08-19T19:07:33;25.20;99.90
24017;DHT22;12222;50.090;19.702;2022-08-19T19:12:55;24.90;99.90
24017;DHT22;12222;50.090;19.702;2022-08-19T19:18:17;24.20;99.90
24017;DHT22;12222;50.090;19.702;2022-08-19T19:23:39;24.00;99.90
24017;DHT22;12222;50.090;19.702;2022-08-19T19:29:02;23.70;99.90
24017;DHT22;12222;50.090;19.702;2022-08-19T19:34:25;23.50;99.90
24017;DHT22;12222;50.090;19.702;2022-08-19T19:39:51;23.30;99.90
24017;DHT22;12222;50.090;19.702;2022-08-19T19:45:15;23.20;99.90
24017;DHT22;12222;50.090;19.702;2022-08-19T19:50:39;23.10;99.90
24017;DHT22;12222;50.090;19.702;2022-08-19T19:56:03;23.10;99.90
24017;DHT22;12222;50.090;19.702;2022-08-19T20:01:26;23.00;99.90
24017;DHT22;12222;50.090;19.702;2022-08-19T20:06:50;23.00;99.90
24017;DHT22;12222;50.090;19.702;2022-08-19T20:12:13;22.80;99.90
24017;DHT22;12222;50.090;19.702;2022-08-19T20:17:36;22.80;99.90
24017;DHT22;12222;50.090;19.702;2022-08-19T20:23:04;22.80;99.90
24017;DHT22;12222;50.090;19.702;2022-08-19T20:28:28;22.80;99.90
24017;DHT22;12222;50.090;19.702;2022-08-19T20:33:51;22.80;99.90
24017;DHT22;12222;50.090;19.702;2022-08-19T20:39:15;22.80;99.90
24017;DHT22;12222;50.090;19.702;2022-08-19T20:44:39;22.50;99.90
24017;DHT22;12222;50.090;19.702;2022-08-19T20:50:04;22.40;99.90
24017;DHT22;12222;50.090;19.702;2022-08-19T20:55:28;22.30;99.90
24017;DHT22;12222;50.090;19.702;2022-08-19T21:00:55;22.20;99.90
24017;DHT22;12222;50.090;19.702;2022-08-19T21:06:22;21.70;99.90
24017;DHT22;12222;50.090;19.702;2022-08-19T21:11:46;21.70;99.90
24017;DHT22;12222;50.090;19.702;2022-08-19T21:17:10;21.90;99.90
24017;DHT22;12222;50.090;19.702;2022-08-19T21:22:35;22.00;99.90
24017;DHT22;12222;50.090;19.702;2022-08-19T21:28:00;21.80;99.90
24017;DHT22;12222;50.090;19.702;2022-08-19T21:33:43;21.70;99.90
24017;DHT22;12222;50.090;19.702;2022-08-19T21:39:22;21.80;99.90
24017;DHT22;12222;50.090;19.702;2022-08-19T21:44:47;21.60;99.90
24017;DHT22;12222;50.090;19.702;2022-08-19T21:50:12;21.50;99.90
24017;DHT22;12222;50.090;19.702;2022-08-19T21:55:36;21.60;99.90
24017;DHT22;12222;50.090;19.702;2022-08-19T22:00:59;21.50;99.90
24017;DHT22;12222;50.090;19.702;2022-08-19T22:06:23;21.40;99.90
24017;DHT22;12222;50.090;19.702;2022-08-19T22:11:46;21.40;99.90
24017;DHT22;12222;50.090;19.702;2022-08-19T22:17:09;21.40;99.90
24017;DHT22;12222;50.090;19.702;2022-08-19T22:22:33;21.40;99.90
24017;DHT22;12222;50.090;19.702;2022-08-19T22:27:56;21.40;99.90
24017;DHT22;12222;50.090;19.702;2022-08-19T22:33:21;21.40;99.90
24017;DHT22;12222;50.090;19.702;2022-08-19T22:38:44;21.40;99.90
24017;DHT22;12222;50.090;19.702;2022-08-19T22:44:06;21.40;99.90
24017;DHT22;12222;50.090;19.702;2022-08-19T22:49:32;21.30;99.90
24017;DHT22;12222;50.090;19.702;2022-08-19T22:54:57;21.20;99.90
24017;DHT22;12222;50.090;19.702;2022-08-19T23:00:21;21.00;99.90
24017;DHT22;12222;50.090;19.702;2022-08-19T23:05:44;21.20;99.90
24017;DHT22;12222;50.090;19.702;2022-08-19T23:11:08;21.00;99.90
24017;DHT22;12222;50.090;19.702;2022-08-19T23:16:32;20.90;99.90
24017;DHT22;12222;50.090;19.702;2022-08-19T23:21:58;21.00;99.90
24017;DHT22;12222;50.090;19.702;2022-08-19T23:27:20;20.60;99.90
24017;DHT22;12222;50.090;19.702;2022-08-19T23:33:04;20.30;99.90
24017;DHT22;12222;50.090;19.702;2022-08-19T23:38:33;20.60;99.90
24017;DHT22;12222;50.090;19.702;2022-08-19T23:43:56;20.40;99.90
24017;DHT22;12222;50.090;19.702;2022-08-19T23:49:22;20.30;99.90
24017;DHT22;12222;50.090;19.702;2022-08-19T23:54:44;20.20;99.90
